createdAt,value
2024-03-11T00:02:02.574Z,64.76
2024-03-11T00:04:30.051Z,64.88
2024-03-11T00:06:58.871Z,64.71
2024-03-11T00:09:34.483Z,64.89
2024-03-11T00:12:01.697Z,64.75
2024-03-11T00:14:31.257Z,64.52
2024-03-11T00:16:58.911Z,64.70
2024-03-11T00:19:27.300Z,64.55
2024-03-11T00:21:57.885Z,64.58
2024-03-11T00:24:25.426Z,64.35
2024-03-11T00:26:52.692Z,64.43
2024-03-11T00:29:20.560Z,64.26
2024-03-11T00:31:47.293Z,64.40
2024-03-11T00:34:18.273Z,64.31
2024-03-11T00:36:49.227Z,64.65
2024-03-11T00:39:16.866Z,64.48
2024-03-11T00:41:43.798Z,64.31
2024-03-11T00:44:10.734Z,64.11
2024-03-11T00:46:37.235Z,63.91
2024-03-11T00:49:06.567Z,64.14
2024-03-11T00:51:36.296Z,63.72
2024-03-11T00:54:02.898Z,63.77
2024-03-11T00:56:29.434Z,63.84
2024-03-11T00:58:55.922Z,63.88
2024-03-11T01:01:22.475Z,64.05
2024-03-11T01:03:49.005Z,63.56
2024-03-11T01:06:16.893Z,63.29
2024-03-11T01:08:43.585Z,63.46
2024-03-11T01:11:11.915Z,63.21
2024-03-11T01:13:38.866Z,63.03
2024-03-11T01:16:08.742Z,63.04
2024-03-11T01:18:35.287Z,63.19
2024-03-11T01:21:03.482Z,63.10
2024-03-11T01:23:30.106Z,62.82
2024-03-11T01:25:57.037Z,63.46
2024-03-11T01:28:23.545Z,63.59
2024-03-11T01:30:50.161Z,63.38
2024-03-11T01:33:16.903Z,63.38
2024-03-11T01:35:44.508Z,63.37
2024-03-11T01:38:11.566Z,63.43
2024-03-11T01:40:38.130Z,63.11
2024-03-11T01:43:05.810Z,63.37
2024-03-11T01:45:33.882Z,63.34
2024-03-11T01:48:01.689Z,63.35
2024-03-11T01:50:29.793Z,62.84
2024-03-11T01:52:57.463Z,63.03
2024-03-11T01:55:28.923Z,62.94
2024-03-11T01:57:56.724Z,63.24
2024-03-11T02:00:23.845Z,62.89
2024-03-11T02:02:55.939Z,62.86
2024-03-11T02:05:25.384Z,62.90
2024-03-11T02:08:00.918Z,63.32
2024-03-11T02:10:29.017Z,63.49
2024-03-11T02:12:57.393Z,63.32
2024-03-11T02:15:23.997Z,63.79
2024-03-11T02:17:50.832Z,63.45
2024-03-11T02:20:19.147Z,63.56
2024-03-11T02:22:50.997Z,63.27
2024-03-11T02:25:36.853Z,63.32
2024-03-11T02:28:06.435Z,63.49
2024-03-11T02:30:33.975Z,63.40
2024-03-11T02:33:00.685Z,63.26
2024-03-11T02:35:27.736Z,63.39
2024-03-11T02:37:54.329Z,63.65
2024-03-11T02:40:27.680Z,63.56
2024-03-11T02:42:58.172Z,63.36
2024-03-11T02:45:27.179Z,63.19
2024-03-11T02:47:54.213Z,63.34
2024-03-11T02:50:20.846Z,63.19
2024-03-11T02:52:47.747Z,63.26
2024-03-11T02:55:19.998Z,63.16
2024-03-11T02:57:49.746Z,63.23
2024-03-11T03:00:17.979Z,63.19
2024-03-11T03:02:44.721Z,62.96
2024-03-11T03:05:13.445Z,63.63
2024-03-11T03:07:40.540Z,63.43
2024-03-11T03:10:07.837Z,63.31
2024-03-11T03:12:34.623Z,63.15
2024-03-11T03:15:01.779Z,63.10
2024-03-11T03:17:28.317Z,63.11
2024-03-11T03:19:56.557Z,63.04
2024-03-11T03:22:23.082Z,63.29
2024-03-11T03:24:51.202Z,63.29
2024-03-11T03:27:17.942Z,63.39
2024-03-11T03:29:45.739Z,63.50
2024-03-11T03:32:13.362Z,63.42
2024-03-11T03:34:40.397Z,63.41
2024-03-11T03:37:07.110Z,63.69
2024-03-11T03:39:35.110Z,63.79
2024-03-11T03:42:01.747Z,63.35
2024-03-11T03:44:28.249Z,63.60
2024-03-11T03:46:56.590Z,63.85
2024-03-11T03:49:23.075Z,63.65
2024-03-11T03:51:49.536Z,63.87
2024-03-11T03:54:18.926Z,63.79
2024-03-11T03:56:46.453Z,63.82
2024-03-11T03:59:13.162Z,64.03
2024-03-11T04:01:39.745Z,64.32
2024-03-11T04:04:06.258Z,64.32
2024-03-11T04:06:33.556Z,64.47
2024-03-11T04:09:00.031Z,64.49
2024-03-11T04:11:28.266Z,64.36
2024-03-11T04:13:54.970Z,64.01
2024-03-11T04:16:21.765Z,63.76
2024-03-11T04:18:48.696Z,63.79
2024-03-11T04:21:17.238Z,63.72
2024-03-11T04:23:45.751Z,63.96
2024-03-11T04:26:12.606Z,63.69
2024-03-11T04:28:39.182Z,63.86
2024-03-11T04:31:06.220Z,64.24
2024-03-11T04:33:32.998Z,63.99
2024-03-11T04:35:59.840Z,64.03
2024-03-11T04:38:27.741Z,64.15
2024-03-11T04:40:54.302Z,63.86
2024-03-11T04:43:21.955Z,63.47
2024-03-11T04:45:48.466Z,63.92
2024-03-11T04:48:15.144Z,63.70
2024-03-11T04:50:43.986Z,63.78
2024-03-11T04:53:11.799Z,63.37
2024-03-11T04:55:38.627Z,63.62
2024-03-11T04:58:05.888Z,63.73
2024-03-11T05:00:33.573Z,63.74
2024-03-11T05:03:02.532Z,63.72
2024-03-11T05:05:36.108Z,63.68
2024-03-11T05:08:05.116Z,63.88
2024-03-11T05:10:32.268Z,63.73
2024-03-11T05:13:01.643Z,63.77
2024-03-11T05:15:28.644Z,63.96
2024-03-11T05:17:55.745Z,63.83
2024-03-11T05:20:22.626Z,63.73
2024-03-11T05:22:49.921Z,63.29
2024-03-11T05:25:16.825Z,63.39
2024-03-11T05:27:46.432Z,63.77
2024-03-11T05:30:13.251Z,63.78
2024-03-11T05:32:41.191Z,63.41
2024-03-11T05:35:08.252Z,63.63
2024-03-11T05:37:34.787Z,63.39
2024-03-11T05:40:02.415Z,63.47
2024-03-11T05:42:28.913Z,63.60
2024-03-11T05:44:59.987Z,63.49
2024-03-11T05:47:27.296Z,63.63
2024-03-11T05:49:55.433Z,63.29
2024-03-11T05:52:26.074Z,63.31
2024-03-11T05:54:54.368Z,63.34
2024-03-11T05:57:28.050Z,63.61
2024-03-11T05:59:54.970Z,63.63
2024-03-11T06:02:22.115Z,63.70
2024-03-11T06:04:49.065Z,63.60
2024-03-11T06:07:25.283Z,63.65
2024-03-11T06:09:52.963Z,63.45
2024-03-11T06:12:22.486Z,63.59
2024-03-11T06:14:50.007Z,63.35
2024-03-11T06:17:17.803Z,63.52
2024-03-11T06:19:45.838Z,63.50
2024-03-11T06:22:13.054Z,63.41
2024-03-11T06:24:39.924Z,63.08
2024-03-11T06:27:06.746Z,63.06
2024-03-11T06:29:33.523Z,63.07
2024-03-11T06:32:00.269Z,63.42
2024-03-11T06:34:28.749Z,63.42
2024-03-11T06:36:56.412Z,63.21
2024-03-11T06:39:23.020Z,62.63
2024-03-11T06:41:49.778Z,63.04
2024-03-11T06:44:21.290Z,63.00
2024-03-11T06:46:58.626Z,63.16
2024-03-11T06:49:26.008Z,63.04
2024-03-11T06:51:52.587Z,62.81
2024-03-11T06:54:19.242Z,62.90
2024-03-11T06:56:45.822Z,62.74
2024-03-11T06:59:12.496Z,62.80
2024-03-11T07:01:39.067Z,62.61
2024-03-11T07:04:05.731Z,62.33
2024-03-11T07:06:32.425Z,62.38
2024-03-11T07:08:58.909Z,61.98
2024-03-11T07:11:25.627Z,62.12
2024-03-11T07:13:52.564Z,62.33
2024-03-11T07:16:19.706Z,61.90
2024-03-11T07:18:47.546Z,62.34
2024-03-11T07:21:14.213Z,61.84
2024-03-11T07:23:40.812Z,61.45
2024-03-11T07:26:09.096Z,61.85
2024-03-11T07:28:35.621Z,61.58
2024-03-11T07:31:02.366Z,61.96
2024-03-11T07:33:29.366Z,61.85
2024-03-11T07:35:59.002Z,61.72
2024-03-11T07:38:27.179Z,61.91
2024-03-11T07:40:53.811Z,62.13
2024-03-11T07:43:20.337Z,62.17
2024-03-11T07:45:46.933Z,62.28
2024-03-11T07:48:16.421Z,62.19
2024-03-11T07:50:43.346Z,62.39
2024-03-11T07:53:09.983Z,61.64
2024-03-11T07:55:36.954Z,61.92
2024-03-11T07:58:04.039Z,62.22
2024-03-11T08:00:31.185Z,62.14
2024-03-11T08:02:59.502Z,62.19
2024-03-11T08:05:28.162Z,62.35
2024-03-11T08:07:54.964Z,62.54
2024-03-11T08:10:22.328Z,62.74
2024-03-11T08:12:49.542Z,62.91
2024-03-11T08:15:16.887Z,63.42
2024-03-11T08:17:47.754Z,62.78
2024-03-11T08:20:19.273Z,62.86
2024-03-11T08:22:48.713Z,62.82
2024-03-11T08:25:28.834Z,63.03
2024-03-11T08:27:55.847Z,62.66
2024-03-11T08:30:24.013Z,62.52
2024-03-11T08:32:54.412Z,62.47
2024-03-11T08:35:22.872Z,62.70
2024-03-11T08:37:51.084Z,62.62
2024-03-11T08:40:21.088Z,62.71
2024-03-11T08:42:54.485Z,62.13
2024-03-11T08:45:23.905Z,62.27
2024-03-11T08:47:51.559Z,62.50
2024-03-11T08:50:18.576Z,62.39
2024-03-11T08:52:47.241Z,62.24
2024-03-11T08:55:15.106Z,62.03
2024-03-11T08:57:44.501Z,62.15
2024-03-11T09:00:12.907Z,62.04
2024-03-11T09:02:40.420Z,62.13
2024-03-11T09:05:20.358Z,62.30
2024-03-11T09:07:48.744Z,62.43
2024-03-11T09:10:16.019Z,62.51
2024-03-11T09:12:43.910Z,62.77
2024-03-11T09:15:18.617Z,62.56
2024-03-11T09:17:49.710Z,62.63
2024-03-11T09:20:16.847Z,62.74
2024-03-11T09:22:47.146Z,62.22
2024-03-11T09:25:19.716Z,62.23
2024-03-11T09:27:49.983Z,62.79
2024-03-11T09:30:18.637Z,62.90
2024-03-11T09:32:47.510Z,62.83
2024-03-11T09:35:17.834Z,63.18
2024-03-11T09:37:46.010Z,63.27
2024-03-11T09:40:13.032Z,63.00
2024-03-11T09:42:40.370Z,63.25
2024-03-11T09:45:08.752Z,63.13
2024-03-11T09:47:37.289Z,63.08
2024-03-11T09:50:04.945Z,62.95
2024-03-11T09:52:34.315Z,62.28
2024-03-11T09:55:00.899Z,61.94
2024-03-11T09:57:27.986Z,62.16
2024-03-11T09:59:55.544Z,61.93
2024-03-11T10:02:24.892Z,62.05
2024-03-11T10:04:55.098Z,61.81
2024-03-11T10:07:24.303Z,62.03
2024-03-11T10:09:51.032Z,62.96
2024-03-11T10:12:20.310Z,62.66
2024-03-11T10:14:49.016Z,62.47
2024-03-11T10:17:28.015Z,62.59
2024-03-11T10:19:57.358Z,62.02
2024-03-11T10:22:25.277Z,61.68
2024-03-11T10:25:01.869Z,61.61
2024-03-11T10:27:33.114Z,61.33
2024-03-11T10:30:21.760Z,61.24
2024-03-11T10:32:56.523Z,60.88
2024-03-11T10:35:24.125Z,61.29
2024-03-11T10:37:55.623Z,60.79
2024-03-11T10:40:31.765Z,60.87
2024-03-11T10:43:02.562Z,61.07
2024-03-11T10:45:31.292Z,60.72
2024-03-11T10:48:10.666Z,60.31
2024-03-11T10:50:37.327Z,60.81
2024-03-11T10:53:08.160Z,60.47
2024-03-11T10:55:35.584Z,60.13
2024-03-11T10:58:04.312Z,59.33
2024-03-11T11:00:36.028Z,58.82
2024-03-11T11:03:13.844Z,58.65
2024-03-11T11:05:44.521Z,58.95
2024-03-11T11:08:14.038Z,59.74
2024-03-11T11:10:42.968Z,59.48
2024-03-11T11:13:09.961Z,60.16
2024-03-11T11:15:37.787Z,60.60
2024-03-11T11:18:14.621Z,61.06
2024-03-11T11:20:48.199Z,60.97
2024-03-11T11:23:26.617Z,60.50
2024-03-11T11:25:56.649Z,60.96
2024-03-11T11:28:40.910Z,61.00
2024-03-11T11:31:15.710Z,61.36
2024-03-11T11:33:57.750Z,61.48
2024-03-11T11:36:33.611Z,61.19
2024-03-11T11:39:15.907Z,60.75
2024-03-11T11:41:46.611Z,60.86
2024-03-11T11:44:33.222Z,60.80
2024-03-11T11:47:06.425Z,61.46
2024-03-11T11:49:35.887Z,61.61
2024-03-11T11:52:03.603Z,61.81
2024-03-11T11:54:36.294Z,61.94
2024-03-11T11:57:06.068Z,61.81
2024-03-11T11:59:39.267Z,61.47
2024-03-11T12:02:07.565Z,61.65
2024-03-11T12:04:37.004Z,61.42
2024-03-11T12:07:05.350Z,61.43
2024-03-11T12:09:35.509Z,61.48
2024-03-11T12:12:02.547Z,61.61
2024-03-11T12:14:32.781Z,61.87
2024-03-11T12:17:08.877Z,62.29
2024-03-11T12:19:37.149Z,62.27
2024-03-11T12:22:05.789Z,62.24
2024-03-11T12:24:32.956Z,62.76
2024-03-11T12:27:00.033Z,62.43
2024-03-11T12:29:26.844Z,62.25
2024-03-11T12:31:56.677Z,62.58
2024-03-11T12:34:27.102Z,62.30
2024-03-11T12:36:56.266Z,62.01
2024-03-11T12:39:35.187Z,62.07
2024-03-11T12:42:01.923Z,61.49
2024-03-11T12:44:28.730Z,60.89
2024-03-11T12:46:57.254Z,60.81
2024-03-11T12:49:25.953Z,61.46
2024-03-11T12:52:10.088Z,61.47
2024-03-11T12:54:38.813Z,61.02
2024-03-11T12:57:13.858Z,61.59
2024-03-11T12:59:42.703Z,60.66
2024-03-11T13:02:10.723Z,60.65
2024-03-11T13:04:38.213Z,61.04
2024-03-11T13:07:10.476Z,61.23
2024-03-11T13:09:37.446Z,61.74
2024-03-11T13:12:05.034Z,61.53
2024-03-11T13:14:31.967Z,62.25
2024-03-11T13:16:58.477Z,62.19
2024-03-11T13:19:28.404Z,62.07
2024-03-11T13:21:56.624Z,62.46
2024-03-11T13:24:34.010Z,62.65
2024-03-11T13:27:00.617Z,62.39
2024-03-11T13:29:27.133Z,61.79
2024-03-11T13:31:54.271Z,61.90
2024-03-11T13:34:23.128Z,61.70
2024-03-11T13:36:51.762Z,61.33
2024-03-11T13:39:19.152Z,61.54
2024-03-11T13:41:48.268Z,61.35
2024-03-11T13:44:21.519Z,61.01
2024-03-11T13:46:49.691Z,60.43
2024-03-11T13:49:19.894Z,60.61
2024-03-11T13:51:46.462Z,61.25
2024-03-11T13:54:13.057Z,61.63
2024-03-11T13:56:40.971Z,61.40
2024-03-11T13:59:07.568Z,60.52
2024-03-11T14:01:34.185Z,60.33
2024-03-11T14:04:00.815Z,60.24
2024-03-11T14:06:29.121Z,60.49
2024-03-11T14:08:56.169Z,59.83
2024-03-11T14:11:22.846Z,59.04
2024-03-11T14:13:49.454Z,57.83
2024-03-11T14:16:16.298Z,58.06
2024-03-11T14:18:43.910Z,58.21
2024-03-11T14:21:10.598Z,58.14
2024-03-11T14:23:37.619Z,57.62
2024-03-11T14:26:04.927Z,57.92
2024-03-11T14:28:34.622Z,58.19
2024-03-11T14:31:04.184Z,57.10
2024-03-11T14:33:31.198Z,57.34
2024-03-11T14:35:57.958Z,57.29
2024-03-11T14:38:24.700Z,57.48
2024-03-11T14:40:51.980Z,57.51
2024-03-11T14:43:19.821Z,56.94
2024-03-11T14:45:49.187Z,57.04
2024-03-11T14:48:18.091Z,57.22
2024-03-11T14:50:46.665Z,57.29
2024-03-11T14:53:15.245Z,57.18
2024-03-11T14:55:43.502Z,57.59
2024-03-11T14:58:14.100Z,57.34
2024-03-11T15:00:50.941Z,57.14
2024-03-11T15:03:21.615Z,57.23
2024-03-11T15:05:49.164Z,56.62
2024-03-11T15:08:20.870Z,56.05
2024-03-11T15:10:48.156Z,55.93
2024-03-11T15:13:17.891Z,56.23
2024-03-11T15:15:48.344Z,56.22
2024-03-11T15:18:18.499Z,56.77
2024-03-11T15:20:49.969Z,56.42
2024-03-11T15:23:24.320Z,56.45
2024-03-11T15:25:54.492Z,56.96
2024-03-11T15:28:21.577Z,56.88
2024-03-11T15:30:48.580Z,57.00
2024-03-11T15:33:17.202Z,57.19
2024-03-11T15:35:43.868Z,57.34
2024-03-11T15:38:13.062Z,57.58
2024-03-11T15:40:42.480Z,57.96
2024-03-11T15:43:09.680Z,58.26
2024-03-11T15:45:38.192Z,58.68
2024-03-11T15:48:05.617Z,59.27
2024-03-11T15:50:35.686Z,59.56
2024-03-11T15:53:03.402Z,59.69
2024-03-11T15:55:30.160Z,59.93
2024-03-11T15:58:04.803Z,60.19
2024-03-11T16:00:37.318Z,60.20
2024-03-11T16:03:08.297Z,60.40
2024-03-11T16:05:38.964Z,60.58
2024-03-11T16:08:07.025Z,60.70
2024-03-11T16:10:33.525Z,60.91
2024-03-11T16:13:00.172Z,61.09
2024-03-11T16:15:28.281Z,61.13
2024-03-11T16:17:55.699Z,61.33
2024-03-11T16:20:25.494Z,61.52
2024-03-11T16:22:54.364Z,62.05
2024-03-11T16:25:22.390Z,62.54
2024-03-11T16:27:51.514Z,63.31
2024-03-11T16:30:23.968Z,63.13
2024-03-11T16:32:53.509Z,63.31
2024-03-11T16:35:28.738Z,63.48
2024-03-11T16:37:59.644Z,63.41
2024-03-11T16:40:28.033Z,63.52
2024-03-11T16:43:02.256Z,63.59
2024-03-11T16:45:28.947Z,63.58
2024-03-11T16:47:58.642Z,63.89
2024-03-11T16:50:25.629Z,63.78
2024-03-11T16:52:54.274Z,64.07
2024-03-11T16:55:32.452Z,64.04
2024-03-11T16:58:00.646Z,63.74
2024-03-11T17:00:37.255Z,63.72
2024-03-11T17:03:04.419Z,63.42
2024-03-11T17:05:31.953Z,62.95
2024-03-11T17:07:59.084Z,63.63
2024-03-11T17:10:33.141Z,63.27
2024-03-11T17:13:05.037Z,63.14
2024-03-11T17:15:35.644Z,63.42
2024-03-11T17:18:02.856Z,63.49
2024-03-11T17:20:40.489Z,64.32
2024-03-11T17:23:09.770Z,64.30
2024-03-11T17:25:37.709Z,64.59
2024-03-11T17:28:07.496Z,64.80
2024-03-11T17:30:35.836Z,65.27
2024-03-11T17:33:15.490Z,65.66
2024-03-11T17:35:46.924Z,66.09
2024-03-11T17:38:14.596Z,66.39
2024-03-11T17:40:45.042Z,66.37
2024-03-11T17:43:14.797Z,66.24
2024-03-11T17:45:45.290Z,66.48
2024-03-11T17:48:17.078Z,66.19
2024-03-11T17:50:44.512Z,66.01
2024-03-11T17:53:14.472Z,66.06
2024-03-11T17:55:45.038Z,65.74
2024-03-11T17:58:12.478Z,65.67
2024-03-11T18:00:41.450Z,65.82
2024-03-11T18:03:10.996Z,65.78
2024-03-11T18:05:38.125Z,65.73
2024-03-11T18:08:07.597Z,65.85
2024-03-11T18:10:37.814Z,65.64
2024-03-11T18:13:12.553Z,65.55
2024-03-11T18:15:42.556Z,65.59
2024-03-11T18:18:14.525Z,65.65
2024-03-11T18:20:42.386Z,65.51
2024-03-11T18:23:15.169Z,65.57
2024-03-11T18:25:47.937Z,65.46
2024-03-11T18:28:14.687Z,65.16
2024-03-11T18:30:42.736Z,65.37
2024-03-11T18:33:09.756Z,65.28
2024-03-11T18:35:36.912Z,65.01
2024-03-11T18:38:07.812Z,65.06
2024-03-11T18:40:35.695Z,64.90
2024-03-11T18:43:05.804Z,64.96
2024-03-11T18:45:33.975Z,64.63
2024-03-11T18:48:02.100Z,64.73
2024-03-11T18:50:31.942Z,64.85
2024-03-11T18:53:01.564Z,64.84
2024-03-11T18:55:33.511Z,64.62
2024-03-11T18:58:02.065Z,64.94
2024-03-11T19:00:31.343Z,64.63
2024-03-11T19:03:00.139Z,64.70
2024-03-11T19:05:27.497Z,64.57
2024-03-11T19:07:55.532Z,64.42
2024-03-11T19:10:27.818Z,64.46
2024-03-11T19:12:55.530Z,64.05
2024-03-11T19:15:25.542Z,64.17
2024-03-11T19:17:53.132Z,63.99
2024-03-11T19:20:24.680Z,63.96
2024-03-11T19:22:56.351Z,63.90
2024-03-11T19:25:30.591Z,63.46
2024-03-11T19:27:58.726Z,63.84
2024-03-11T19:30:29.636Z,63.34
2024-03-11T19:32:58.328Z,63.45
2024-03-11T19:35:26.671Z,62.98
2024-03-11T19:38:16.127Z,63.32
2024-03-11T19:41:03.930Z,63.36
2024-03-11T19:43:44.546Z,63.24
2024-03-11T19:46:33.394Z,62.85
2024-03-11T19:49:33.786Z,63.03
2024-03-11T19:52:44.432Z,62.97
2024-03-11T19:55:49.268Z,63.33
2024-03-11T19:58:22.544Z,63.09
2024-03-11T20:01:12.966Z,63.31
2024-03-11T20:04:04.479Z,62.97
2024-03-11T20:07:06.256Z,63.01
2024-03-11T20:10:01.983Z,62.83
2024-03-11T20:12:49.503Z,62.89
2024-03-11T20:15:39.012Z,62.94
2024-03-11T20:18:39.916Z,62.67
2024-03-11T20:21:25.204Z,62.53
2024-03-11T20:24:33.687Z,62.27
2024-03-11T20:27:25.576Z,62.39
2024-03-11T20:30:00.390Z,61.69
2024-03-11T20:32:27.055Z,61.66
2024-03-11T20:34:55.425Z,61.44
2024-03-11T20:37:22.231Z,61.78
2024-03-11T20:39:48.830Z,61.56
2024-03-11T20:42:17.223Z,61.66
2024-03-11T20:44:43.789Z,61.55
2024-03-11T20:47:10.280Z,61.34
2024-03-11T20:49:37.048Z,61.27
2024-03-11T20:52:03.802Z,60.71
2024-03-11T20:54:32.916Z,60.84
2024-03-11T20:57:00.803Z,60.62
2024-03-11T20:59:27.554Z,60.61
2024-03-11T21:01:54.153Z,60.30
2024-03-11T21:04:20.803Z,60.40
2024-03-11T21:06:48.160Z,60.56
2024-03-11T21:09:14.858Z,60.60
2024-03-11T21:11:42.389Z,60.26
2024-03-11T21:14:09.988Z,59.86
2024-03-11T21:16:36.573Z,60.21
2024-03-11T21:19:10.185Z,60.14
2024-03-11T21:22:06.465Z,59.48
2024-03-11T21:24:48.194Z,60.09
2024-03-11T21:27:24.822Z,59.52
2024-03-11T21:29:55.379Z,59.66
2024-03-11T21:32:25.704Z,59.24
2024-03-11T21:34:54.957Z,59.45
2024-03-11T21:37:21.595Z,59.38
2024-03-11T21:39:54.522Z,59.35
2024-03-11T21:42:22.287Z,59.37
2024-03-11T21:44:50.044Z,59.80
2024-03-11T21:47:23.935Z,59.69
2024-03-11T21:49:51.009Z,59.74
2024-03-11T21:52:18.741Z,59.64
2024-03-11T21:54:47.358Z,59.64
2024-03-11T21:57:14.282Z,59.49
2024-03-11T21:59:47.369Z,59.57
2024-03-11T22:02:16.184Z,59.54
2024-03-11T22:04:43.029Z,59.41
2024-03-11T22:07:12.734Z,59.24
2024-03-11T22:09:40.235Z,59.66
2024-03-11T22:12:08.803Z,59.48
2024-03-11T22:14:38.413Z,59.28
2024-03-11T22:17:08.972Z,59.44
2024-03-11T22:19:35.648Z,58.93
2024-03-11T22:22:04.803Z,58.94
2024-03-11T22:24:32.028Z,58.96
2024-03-11T22:27:04.171Z,58.69
2024-03-11T22:29:35.211Z,58.65
2024-03-11T22:32:01.785Z,58.62
2024-03-11T22:34:28.423Z,59.06
2024-03-11T22:36:56.102Z,58.94
2024-03-11T22:39:24.423Z,59.44
2024-03-11T22:41:51.907Z,60.15
2024-03-11T22:44:19.014Z,60.43
2024-03-11T22:46:45.819Z,61.03
2024-03-11T22:49:14.438Z,61.25
2024-03-11T22:51:44.006Z,61.34
2024-03-11T22:54:10.935Z,61.96
2024-03-11T22:56:38.582Z,62.51
2024-03-11T22:59:05.750Z,62.93
2024-03-11T23:01:34.815Z,63.45
2024-03-11T23:04:06.041Z,63.76
2024-03-11T23:06:34.082Z,63.67
2024-03-11T23:09:01.007Z,63.72
2024-03-11T23:11:27.901Z,63.94
2024-03-11T23:13:54.647Z,63.63
2024-03-11T23:16:22.201Z,63.29
2024-03-11T23:18:51.486Z,63.29
2024-03-11T23:21:18.513Z,63.41
2024-03-11T23:23:46.813Z,63.08
2024-03-11T23:26:14.400Z,63.44
2024-03-11T23:28:41.832Z,63.13
2024-03-11T23:31:10.655Z,63.57
2024-03-11T23:33:37.809Z,63.46
2024-03-11T23:36:04.802Z,63.33
2024-03-11T23:38:34.150Z,63.11
2024-03-11T23:41:00.734Z,63.35
2024-03-11T23:43:27.346Z,63.39
2024-03-11T23:45:55.436Z,63.22
2024-03-11T23:48:26.325Z,63.28
2024-03-11T23:50:56.748Z,63.23
2024-03-11T23:53:26.448Z,63.54
2024-03-11T23:56:00.135Z,63.25
2024-03-11T23:58:33.336Z,63.62
